createdAt,value
2018-08-25T00:01:11.976Z,0.60
2018-08-25T00:03:40.355Z,0.80
2018-08-25T00:06:08.663Z,1.00
2018-08-25T00:08:37.904Z,0.97
2018-08-25T00:11:06.808Z,0.80
2018-08-25T00:13:35.155Z,1.23
2018-08-25T00:16:03.499Z,0.80
2018-08-25T00:18:31.887Z,1.07
2018-08-25T00:21:00.272Z,0.90
2018-08-25T00:23:28.598Z,0.80
2018-08-25T00:25:56.889Z,0.90
2018-08-25T00:28:25.254Z,1.17
2018-08-25T00:30:59.076Z,1.20
2018-08-25T00:33:27.476Z,0.70
2018-08-25T00:35:55.963Z,1.07
2018-08-25T00:38:24.303Z,1.23
2018-08-25T00:40:52.569Z,0.90
2018-08-25T00:43:20.881Z,0.83
2018-08-25T00:45:49.323Z,1.00
2018-08-25T00:48:17.674Z,1.37
2018-08-25T00:50:46.027Z,1.03
2018-08-25T00:53:14.500Z,1.50
2018-08-25T00:55:42.826Z,1.17
2018-08-25T00:58:11.249Z,1.07
2018-08-25T01:00:39.593Z,1.00
2018-08-25T01:03:07.924Z,1.00
2018-08-25T01:05:36.260Z,0.97
2018-08-25T01:08:05.072Z,0.93
2018-08-25T01:10:33.685Z,1.40
2018-08-25T01:13:02.320Z,1.07
2018-08-25T01:15:30.713Z,1.30
2018-08-25T01:17:59.037Z,1.50
2018-08-25T01:20:27.400Z,1.30
2018-08-25T01:22:55.778Z,1.40
2018-08-25T01:25:24.350Z,1.40
2018-08-25T01:27:53.296Z,1.27
2018-08-25T01:30:21.624Z,1.50
2018-08-25T01:32:49.992Z,1.23
2018-08-25T01:35:18.313Z,1.70
2018-08-25T01:37:46.667Z,2.70
2018-08-25T01:40:15.037Z,1.43
2018-08-25T01:42:43.358Z,1.30
2018-08-25T01:45:11.735Z,1.50
2018-08-25T01:47:40.106Z,1.40
2018-08-25T01:50:08.724Z,1.70
2018-08-25T01:52:37.083Z,1.90
2018-08-25T01:55:05.562Z,1.90
2018-08-25T01:57:33.962Z,2.07
2018-08-25T02:00:02.296Z,2.20
2018-08-25T02:02:30.704Z,2.33
2018-08-25T02:04:59.091Z,2.10
2018-08-25T02:07:27.459Z,2.40
2018-08-25T02:09:55.852Z,2.40
2018-08-25T02:12:24.272Z,2.50
2018-08-25T02:14:52.649Z,2.60
2018-08-25T02:17:21.070Z,2.53
2018-08-25T02:19:49.440Z,2.67
2018-08-25T02:22:17.760Z,2.60
2018-08-25T02:24:46.087Z,2.23
2018-08-25T02:27:14.434Z,2.47
2018-08-25T02:29:42.756Z,2.27
2018-08-25T02:32:11.108Z,2.47
2018-08-25T02:34:39.453Z,2.67
2018-08-25T02:37:07.799Z,3.20
2018-08-25T02:39:36.141Z,2.73
2018-08-25T02:42:04.479Z,3.13
2018-08-25T02:44:32.827Z,2.50
2018-08-25T02:47:01.199Z,2.40
2018-08-25T02:49:29.514Z,1.87
2018-08-25T02:51:58.001Z,1.60
2018-08-25T02:54:26.339Z,1.57
2018-08-25T02:56:54.667Z,1.50
2018-08-25T02:59:23.031Z,1.60
2018-08-25T03:01:51.425Z,2.33
2018-08-25T03:04:19.753Z,1.90
2018-08-25T03:06:48.063Z,2.23
2018-08-25T03:09:16.465Z,2.47
2018-08-25T03:11:44.775Z,2.63
2018-08-25T03:14:13.220Z,3.13
2018-08-25T03:16:41.547Z,2.80
2018-08-25T03:19:09.862Z,2.33
2018-08-25T03:21:38.212Z,2.57
2018-08-25T03:24:06.584Z,2.20
2018-08-25T03:26:34.951Z,2.43
2018-08-25T03:29:03.304Z,1.97
2018-08-25T03:31:31.666Z,1.90
2018-08-25T03:33:59.991Z,1.60
2018-08-25T03:36:28.315Z,1.47
2018-08-25T03:38:56.620Z,1.47
2018-08-25T03:41:24.972Z,1.50
2018-08-25T03:43:53.308Z,1.10
2018-08-25T03:46:21.653Z,1.00
2018-08-25T03:48:50.052Z,1.03
2018-08-25T03:51:18.393Z,1.17
2018-08-25T03:53:46.719Z,1.13
2018-08-25T03:56:15.021Z,1.00
2018-08-25T03:58:43.332Z,0.97
2018-08-25T04:01:11.672Z,0.87
2018-08-25T04:03:40.011Z,1.93
2018-08-25T04:06:08.328Z,1.43
2018-08-25T04:08:36.681Z,1.00
2018-08-25T04:11:04.947Z,1.20
2018-08-25T04:13:33.319Z,1.57
2018-08-25T04:16:01.725Z,1.23
2018-08-25T04:18:30.091Z,1.10
2018-08-25T04:20:58.411Z,1.20
2018-08-25T04:23:26.884Z,1.10
2018-08-25T04:25:55.260Z,1.07
2018-08-25T04:28:23.675Z,1.30
2018-08-25T04:30:51.968Z,1.40
2018-08-25T04:33:20.399Z,1.37
2018-08-25T04:35:48.623Z,1.50
2018-08-25T04:38:16.988Z,1.43
2018-08-25T04:40:45.329Z,1.07
2018-08-25T04:46:05.239Z,1.00
2018-08-25T04:48:33.607Z,1.20
2018-08-25T04:51:01.941Z,1.40
2018-08-25T04:53:30.302Z,1.87
2018-08-25T04:55:58.781Z,1.33
2018-08-25T04:58:31.009Z,1.53
2018-08-25T05:00:59.393Z,1.13
2018-08-25T05:03:27.863Z,1.50
2018-08-25T05:05:56.217Z,1.97
2018-08-25T05:08:24.563Z,1.63
2018-08-25T05:10:52.874Z,1.53
2018-08-25T05:13:21.214Z,1.50
2018-08-25T05:15:49.552Z,1.47
2018-08-25T05:18:17.919Z,1.73
2018-08-25T05:20:46.228Z,1.80
2018-08-25T05:23:14.644Z,2.03
2018-08-25T05:25:43.058Z,1.80
2018-08-25T05:28:11.441Z,1.90
2018-08-25T05:30:52.133Z,1.90
2018-08-25T05:33:31.536Z,1.67
2018-08-25T05:38:49.762Z,1.90
2018-08-25T05:41:18.228Z,1.97
2018-08-25T05:43:47.490Z,2.40
2018-08-25T05:46:16.076Z,2.17
2018-08-25T05:48:44.569Z,2.10
2018-08-25T05:51:12.942Z,2.10
2018-08-25T05:53:41.323Z,2.07
2018-08-25T05:56:20.982Z,2.27
2018-08-25T05:58:59.391Z,2.30
2018-08-25T06:01:34.001Z,2.27
2018-08-25T06:04:12.089Z,2.20
2018-08-25T06:06:44.136Z,2.20
2018-08-25T06:09:13.857Z,1.90
2018-08-25T06:11:50.778Z,2.17
2018-08-25T06:14:31.264Z,2.10
2018-08-25T06:17:00.059Z,1.80
2018-08-25T06:19:36.356Z,2.10
2018-08-25T06:26:54.807Z,1.87
2018-08-25T06:29:23.163Z,2.00
2018-08-25T06:31:51.583Z,2.60
2018-08-25T06:34:21.325Z,2.30
2018-08-25T06:36:58.758Z,2.30
2018-08-25T06:39:27.837Z,2.50
2018-08-25T06:41:56.220Z,2.67
2018-08-25T06:44:24.708Z,2.47
2018-08-25T06:46:53.199Z,2.40
2018-08-25T06:49:21.543Z,2.30
2018-08-25T06:51:50.532Z,2.80
2018-08-25T06:54:19.121Z,2.43
2018-08-25T06:56:47.500Z,2.27
2018-08-25T06:59:16.553Z,2.37
2018-08-25T07:01:45.473Z,2.50
2018-08-25T07:04:13.860Z,1.97
2018-08-25T07:06:42.620Z,2.00
2018-08-25T07:09:12.467Z,2.43
2018-08-25T07:11:41.702Z,2.43
2018-08-25T07:14:10.745Z,1.80
2018-08-25T07:16:39.906Z,2.57
2018-08-25T07:19:08.332Z,2.17
2018-08-25T07:21:37.183Z,2.07
2018-08-25T07:24:05.751Z,2.00
2018-08-25T07:26:34.392Z,2.17
2018-08-25T07:29:03.142Z,2.60
2018-08-25T07:31:31.561Z,2.07
2018-08-25T07:33:59.934Z,2.07
2018-08-25T07:36:28.327Z,2.23
2018-08-25T07:38:58.137Z,1.70
2018-08-25T07:41:26.533Z,1.57
2018-08-25T07:43:55.005Z,1.50
2018-08-25T07:46:30.911Z,2.07
2018-08-25T07:48:59.560Z,1.80
2018-08-25T07:52:44.156Z,2.13
2018-08-25T07:55:12.925Z,1.60
2018-08-25T07:57:41.391Z,2.10
2018-08-25T08:00:10.024Z,2.17
2018-08-25T08:02:38.658Z,1.93
2018-08-25T08:05:07.195Z,1.40
2018-08-25T08:07:35.611Z,1.27
2018-08-25T08:10:04.335Z,1.40
2018-08-25T08:12:32.788Z,1.63
2018-08-25T08:15:01.941Z,1.67
2018-08-25T08:17:30.335Z,2.50
2018-08-25T08:19:58.900Z,4.00
2018-08-25T08:22:27.291Z,2.60
2018-08-25T08:24:55.681Z,2.00
2018-08-25T08:27:24.280Z,1.93
2018-08-25T08:29:52.671Z,1.93
2018-08-25T08:32:21.456Z,2.07
2018-08-25T08:34:49.907Z,1.73
2018-08-25T08:37:18.372Z,2.00
2018-08-25T08:39:47.157Z,1.97
2018-08-25T08:42:15.840Z,1.57
2018-08-25T08:44:44.210Z,1.83
2018-08-25T08:47:12.577Z,2.57
2018-08-25T08:49:47.335Z,1.80
2018-08-25T08:52:12.215Z,1.57
2018-08-25T08:54:40.642Z,1.30
2018-08-25T08:57:09.144Z,1.50
2018-08-25T08:59:37.796Z,1.83
2018-08-25T09:02:07.000Z,1.40
2018-08-25T09:04:35.793Z,1.57
2018-08-25T09:07:05.603Z,1.60
2018-08-25T09:09:36.773Z,1.33
2018-08-25T09:12:05.171Z,1.60
2018-08-25T09:14:35.561Z,1.73
2018-08-25T09:17:05.349Z,1.40
2018-08-25T09:19:34.897Z,1.67
2018-08-25T09:22:03.570Z,1.60
2018-08-25T09:24:32.380Z,1.70
2018-08-25T09:27:00.903Z,1.10
2018-08-25T09:29:29.332Z,2.33
2018-08-25T09:31:57.611Z,1.20
2018-08-25T09:34:25.964Z,0.67
2018-08-25T09:36:54.517Z,0.90
2018-08-25T09:39:22.770Z,1.07
2018-08-25T09:41:51.170Z,1.20
2018-08-25T09:44:19.392Z,1.23
2018-08-25T09:46:47.788Z,0.90
2018-08-25T09:49:17.062Z,0.90
2018-08-25T09:51:45.469Z,1.20
2018-08-25T09:54:13.820Z,0.90
2018-08-25T09:56:42.345Z,0.80
2018-08-25T09:59:10.803Z,1.07
2018-08-25T10:01:44.837Z,1.30
2018-08-25T10:04:13.287Z,1.20
2018-08-25T10:06:41.697Z,1.70
2018-08-25T10:09:10.071Z,1.20
2018-08-25T10:11:40.714Z,1.30
2018-08-25T10:14:09.131Z,1.30
2018-08-25T10:16:37.547Z,2.33
2018-08-25T10:19:05.980Z,1.53
2018-08-25T10:21:42.727Z,1.00
2018-08-25T10:24:11.117Z,0.97
2018-08-25T10:26:39.848Z,1.07
2018-08-25T10:29:08.375Z,1.30
2018-08-25T10:31:36.698Z,1.03
2018-08-25T10:34:05.016Z,1.70
2018-08-25T10:36:33.395Z,1.70
2018-08-25T10:39:01.952Z,1.57
2018-08-25T10:41:30.348Z,1.40
2018-08-25T10:43:58.741Z,1.47
2018-08-25T10:46:27.091Z,1.27
2018-08-25T10:48:55.501Z,1.00
2018-08-25T10:51:23.884Z,1.10
2018-08-25T10:53:52.373Z,1.27
2018-08-25T10:56:20.731Z,1.17
2018-08-25T10:58:49.283Z,1.20
2018-08-25T11:01:20.878Z,1.37
2018-08-25T11:03:49.460Z,1.40
2018-08-25T11:06:17.792Z,1.77
2018-08-25T11:08:46.216Z,1.23
2018-08-25T11:11:14.529Z,1.57
2018-08-25T11:13:43.011Z,1.80
2018-08-25T11:16:11.364Z,1.40
2018-08-25T11:18:40.127Z,1.23
2018-08-25T11:21:08.522Z,1.70
2018-08-25T11:23:36.869Z,1.40
2018-08-25T11:26:05.384Z,1.40
2018-08-25T11:28:33.798Z,1.73
2018-08-25T11:31:02.313Z,1.20
2018-08-25T11:33:32.196Z,1.50
2018-08-25T11:36:01.469Z,1.27
2018-08-25T11:38:29.884Z,1.70
2018-08-25T11:40:58.747Z,1.00
2018-08-25T11:43:27.247Z,1.70
2018-08-25T11:45:55.599Z,1.40
2018-08-25T11:48:24.105Z,1.40
2018-08-25T11:50:52.504Z,1.23
2018-08-25T11:53:20.878Z,1.17
2018-08-25T11:55:49.267Z,1.07
2018-08-25T11:58:18.128Z,0.97
2018-08-25T12:00:46.551Z,1.40
2018-08-25T12:03:14.860Z,1.07
2018-08-25T12:05:43.331Z,1.60
2018-08-25T12:08:11.845Z,1.80
2018-08-25T12:10:40.475Z,1.83
2018-08-25T12:13:08.806Z,1.67
2018-08-25T12:15:39.989Z,1.57
2018-08-25T12:18:12.520Z,1.90
2018-08-25T12:20:52.174Z,1.53
2018-08-25T12:23:23.019Z,1.60
2018-08-25T12:25:52.187Z,6.30
2018-08-25T12:28:29.082Z,3.13
2018-08-25T12:31:05.263Z,3.83
2018-08-25T12:33:36.569Z,4.57
2018-08-25T12:36:17.052Z,2.23
2018-08-25T12:38:45.376Z,1.50
2018-08-25T12:41:13.751Z,1.70
2018-08-25T12:43:46.954Z,2.00
2018-08-25T12:46:15.543Z,3.70
2018-08-25T12:48:55.711Z,1.70
2018-08-25T12:51:23.938Z,1.40
2018-08-25T12:53:52.325Z,0.97
2018-08-25T12:56:34.356Z,0.90
2018-08-25T12:59:02.744Z,1.53
2018-08-25T13:01:31.277Z,1.47
2018-08-25T13:03:59.610Z,0.70
2018-08-25T13:06:29.253Z,1.17
2018-08-25T13:08:57.642Z,1.00
2018-08-25T13:11:25.979Z,0.90
2018-08-25T13:13:54.301Z,1.00
2018-08-25T13:16:25.597Z,1.07
2018-08-25T13:18:55.080Z,1.00
2018-08-25T13:21:23.266Z,0.90
2018-08-25T13:23:53.972Z,1.10
2018-08-25T13:26:22.295Z,0.83
2018-08-25T13:28:54.026Z,0.90
2018-08-25T13:31:23.152Z,1.00
2018-08-25T13:33:51.487Z,0.97
2018-08-25T13:36:19.980Z,1.13
2018-08-25T13:38:48.659Z,1.00
2018-08-25T13:41:18.028Z,1.40
2018-08-25T13:43:46.392Z,1.07
2018-08-25T13:46:14.992Z,1.27
2018-08-25T13:48:43.427Z,0.97
2018-08-25T13:51:12.575Z,0.90
2018-08-25T13:53:41.152Z,0.77
2018-08-25T13:56:10.111Z,0.70
2018-08-25T13:58:38.809Z,0.90
2018-08-25T14:01:07.167Z,0.90
2018-08-25T14:03:35.519Z,0.90
2018-08-25T14:06:34.203Z,0.83
2018-08-25T14:09:03.491Z,1.03
2018-08-25T14:11:32.151Z,1.10
2018-08-25T14:14:03.148Z,0.80
2018-08-25T14:16:31.647Z,1.10
2018-08-25T14:19:00.336Z,0.93
2018-08-25T14:21:28.883Z,0.90
2018-08-25T14:23:57.272Z,1.00
2018-08-25T14:26:26.204Z,1.37
2018-08-25T14:28:57.018Z,0.97
2018-08-25T14:31:32.563Z,1.00
2018-08-25T14:34:01.904Z,1.13
2018-08-25T14:36:31.302Z,1.10
2018-08-25T14:38:59.927Z,1.47
2018-08-25T14:41:28.287Z,1.30
2018-08-25T14:43:56.613Z,1.20
2018-08-25T14:46:25.035Z,1.13
2018-08-25T14:48:53.668Z,1.00
2018-08-25T14:51:22.031Z,0.83
2018-08-25T14:53:50.484Z,1.70
2018-08-25T14:56:18.932Z,1.90
2018-08-25T14:58:49.018Z,1.80
2018-08-25T15:01:17.454Z,1.70
2018-08-25T15:03:46.084Z,1.50
2018-08-25T15:06:14.619Z,1.40
2018-08-25T15:08:43.044Z,1.10
2018-08-25T15:11:11.578Z,1.30
2018-08-25T15:13:40.159Z,1.30
2018-08-25T15:16:08.605Z,1.30
2018-08-25T15:18:37.654Z,1.60
2018-08-25T15:21:05.948Z,1.27
2018-08-25T15:23:34.425Z,1.20
2018-08-25T15:26:03.603Z,1.17
2018-08-25T15:28:31.973Z,1.10
2018-08-25T15:31:00.337Z,1.10
2018-08-25T15:33:28.833Z,1.57
2018-08-25T15:35:57.139Z,1.43
2018-08-25T15:38:31.315Z,1.40
2018-08-25T15:40:59.687Z,1.23
2018-08-25T15:43:28.080Z,1.00
2018-08-25T15:45:56.497Z,1.30
2018-08-25T15:48:25.483Z,1.10
2018-08-25T15:50:54.224Z,1.27
2018-08-25T15:53:23.157Z,1.00
2018-08-25T15:56:08.048Z,0.83
2018-08-25T15:58:36.811Z,0.93
2018-08-25T16:01:05.256Z,1.20
2018-08-25T16:03:33.788Z,1.23
2018-08-25T16:06:02.272Z,0.97
2018-08-25T16:08:30.629Z,1.10
2018-08-25T16:11:01.925Z,0.90
2018-08-25T16:13:30.460Z,0.90
2018-08-25T16:15:58.855Z,0.80
2018-08-25T16:18:27.380Z,1.00
2018-08-25T16:20:56.453Z,1.23
2018-08-25T16:23:24.863Z,1.10
2018-08-25T16:25:53.173Z,1.70
2018-08-25T16:28:21.510Z,1.20
2018-08-25T16:30:50.822Z,0.93
2018-08-25T16:33:19.506Z,1.43
2018-08-25T16:35:47.899Z,1.07
2018-08-25T16:38:17.795Z,1.00
2018-08-25T16:40:46.233Z,1.10
2018-08-25T16:43:14.593Z,0.90
2018-08-25T16:45:43.085Z,1.00
2018-08-25T16:48:11.455Z,1.00
2018-08-25T16:50:39.957Z,1.00
2018-08-25T16:53:15.023Z,1.33
2018-08-25T16:55:44.402Z,1.27
2018-08-25T16:58:12.857Z,0.97
2018-08-25T17:00:41.389Z,1.10
2018-08-25T17:03:10.413Z,1.00
2018-08-25T17:05:40.117Z,0.80
2018-08-25T17:08:08.649Z,1.13
2018-08-25T17:10:37.261Z,1.10
2018-08-25T17:13:05.655Z,0.90
2018-08-25T17:15:34.354Z,1.20
2018-08-25T17:18:05.696Z,1.30
2018-08-25T17:20:34.588Z,1.27
2018-08-25T17:23:03.967Z,1.10
2018-08-25T17:25:33.494Z,1.30
2018-08-25T17:28:12.353Z,1.57
2018-08-25T17:30:41.259Z,1.20
2018-08-25T17:33:10.599Z,1.07
2018-08-25T17:36:42.134Z,0.97
2018-08-25T17:42:35.333Z,1.10
2018-08-25T17:45:05.008Z,0.83
2018-08-25T17:47:43.402Z,1.17
2018-08-25T17:50:12.067Z,1.10
2018-08-25T17:52:50.459Z,1.03
2018-08-25T17:55:43.643Z,1.30
2018-08-25T17:58:17.301Z,1.60
2018-08-25T18:00:58.548Z,1.40
2018-08-25T18:07:18.039Z,1.50
2018-08-25T18:09:47.538Z,1.10
2018-08-25T18:12:31.227Z,1.40
2018-08-25T18:14:59.886Z,1.60
2018-08-25T18:17:31.400Z,1.57
2018-08-25T18:27:55.668Z,1.40
2018-08-25T18:30:25.332Z,1.33
2018-08-25T18:32:53.786Z,2.00
2018-08-25T18:35:23.496Z,1.37
2018-08-25T18:37:53.112Z,1.60
2018-08-25T18:40:21.860Z,1.60
2018-08-25T18:42:50.485Z,1.90
2018-08-25T18:45:19.155Z,1.33
2018-08-25T18:47:48.133Z,1.93
2018-08-25T18:50:16.908Z,1.40
2018-08-25T18:52:46.389Z,1.80
2018-08-25T18:55:15.398Z,1.20
2018-08-25T18:57:44.207Z,1.67
2018-08-25T19:00:14.479Z,1.10
2018-08-25T19:02:42.942Z,2.17
2018-08-25T19:05:11.511Z,1.63
2018-08-25T19:07:39.916Z,1.00
2018-08-25T19:10:08.377Z,1.20
2018-08-25T19:12:43.398Z,1.20
2018-08-25T19:15:19.659Z,1.20
2018-08-25T19:17:48.538Z,1.03
2018-08-25T19:20:19.812Z,1.50
2018-08-25T19:23:03.010Z,1.47
2018-08-25T19:25:33.531Z,1.50
2018-08-25T19:34:53.179Z,1.37
2018-08-25T19:54:04.267Z,1.93
2018-08-25T19:56:33.033Z,2.00
2018-08-25T19:59:01.692Z,3.07
2018-08-25T20:01:32.817Z,2.40
2018-08-25T20:04:03.489Z,2.00
2018-08-25T20:06:41.526Z,2.10
2018-08-25T20:09:10.640Z,1.93
2018-08-25T20:11:39.463Z,2.10
2018-08-25T20:14:08.076Z,2.27
2018-08-25T20:16:36.628Z,1.97
2018-08-25T20:19:04.812Z,2.10
2018-08-25T20:21:33.217Z,1.90
2018-08-25T20:24:06.850Z,2.20
2018-08-25T20:26:35.008Z,1.97
2018-08-25T20:29:03.413Z,2.20
2018-08-25T20:31:31.681Z,2.57
2018-08-25T20:33:59.856Z,2.47
2018-08-25T20:36:28.005Z,2.00
2018-08-25T20:38:59.707Z,1.57
2018-08-25T20:41:28.000Z,1.87
2018-08-25T20:44:03.412Z,1.97
2018-08-25T20:46:31.541Z,2.23
2018-08-25T20:49:02.984Z,1.90
2018-08-25T20:51:31.918Z,2.30
2018-08-25T20:54:00.257Z,3.20
2018-08-25T20:56:28.603Z,2.10
2018-08-25T20:58:57.685Z,2.80
2018-08-25T21:01:25.816Z,2.33
2018-08-25T21:03:53.986Z,2.17
2018-08-25T21:06:22.231Z,2.27
2018-08-25T21:08:50.318Z,2.03
2018-08-25T21:11:19.003Z,2.10
2018-08-25T21:13:47.075Z,2.57
2018-08-25T21:16:15.246Z,2.67
2018-08-25T21:18:43.338Z,2.77
2018-08-25T21:21:11.430Z,3.40
2018-08-25T21:23:39.557Z,3.10
2018-08-25T21:26:07.928Z,2.70
2018-08-25T21:28:35.968Z,2.63
2018-08-25T21:31:04.095Z,2.70
2018-08-25T21:33:32.245Z,2.80
2018-08-25T21:36:00.329Z,3.53
2018-08-25T21:38:28.945Z,2.90
2018-08-25T21:40:57.052Z,2.70
2018-08-25T21:43:25.232Z,2.33
2018-08-25T21:45:53.289Z,2.47
2018-08-25T21:48:22.316Z,2.73
2018-08-25T21:50:50.431Z,2.70
2018-08-25T21:53:24.858Z,2.30
2018-08-25T21:55:53.020Z,2.70
2018-08-25T21:58:21.283Z,3.27
2018-08-25T22:00:56.481Z,2.30
2018-08-25T22:03:25.712Z,2.87
2018-08-25T22:05:55.206Z,2.80
2018-08-25T22:08:23.680Z,3.63
2018-08-25T22:10:52.712Z,2.57
2018-08-25T22:13:20.946Z,3.23
2018-08-25T22:15:49.426Z,3.03
2018-08-25T22:18:17.926Z,3.20
2018-08-25T22:20:46.079Z,3.30
2018-08-25T22:23:14.137Z,2.60
2018-08-25T22:25:42.221Z,2.77
2018-08-25T22:28:10.286Z,2.63
2018-08-25T22:30:38.359Z,2.80
2018-08-25T22:33:06.480Z,3.83
2018-08-25T22:35:34.599Z,4.33
2018-08-25T22:38:02.823Z,3.70
2018-08-25T22:40:30.924Z,3.17
2018-08-25T22:42:59.035Z,3.40
2018-08-25T22:45:27.128Z,3.03
2018-08-25T22:47:55.221Z,3.57
2018-08-25T22:50:23.263Z,3.20
2018-08-25T22:52:52.335Z,3.40
2018-08-25T22:55:21.893Z,2.73
2018-08-25T22:57:50.286Z,3.10
2018-08-25T23:00:18.641Z,3.07
2018-08-25T23:02:46.679Z,2.83
2018-08-25T23:05:14.769Z,2.60
2018-08-25T23:07:42.847Z,3.60
2018-08-25T23:10:10.962Z,2.70
2018-08-25T23:12:39.016Z,2.60
2018-08-25T23:15:07.126Z,3.00
2018-08-25T23:17:35.220Z,3.40
2018-08-25T23:20:03.469Z,2.80
2018-08-25T23:22:31.709Z,2.73
2018-08-25T23:24:59.951Z,2.70
2018-08-25T23:27:28.011Z,2.30
2018-08-25T23:29:56.253Z,2.60
2018-08-25T23:32:24.291Z,2.33
2018-08-25T23:34:52.402Z,2.93
2018-08-25T23:37:20.627Z,2.90
2018-08-25T23:39:48.815Z,2.50
2018-08-25T23:42:16.935Z,3.53
2018-08-25T23:44:45.080Z,2.37
2018-08-25T23:47:13.270Z,2.50
2018-08-25T23:49:41.298Z,2.40
2018-08-25T23:52:09.340Z,2.37
2018-08-25T23:54:37.429Z,3.03
2018-08-25T23:57:05.587Z,2.60
2018-08-25T23:59:33.691Z,2.63
